Birmingham, AL (35285)

11:23 AM CST on December 28, 2014 (GMT -0600)
Nucor Steel Birmingham | Change Station
CLOSE
Current Station
Personal Weather Station
Location: Birmingham, AL
Elevation: 562 ft
Nearby Weather Stations

Elev 562 ft 33.55 °N, 86.81 °W | Updated 2 seconds ago

Overcast
Overcast
58.3 °F
Feels Like 58.3 °F
N
1.0
Wind Variable Wind from NNE
Gusts 6.0 mph

Today
High -- | Low -- °F
--% Chance of Precip.
Yesterday
High -- | Low -- °F
Precip. -- in
6:50 AM 4:47 PM
Waxing Crescent, 49% visible
Pressure 30.10 in
Visibility 3.0 miles
Clouds Overcast 400 ft
Dew Point 57 °F
Humidity 96%
Rainfall 0.54 in
Snow Depth Not available.
UV 2.0 out of 12
Pollen .40 out of 12
Air Quality Not available.
Flu Activity Not available.
SPECI KBHM 281713Z 33003KT 3SM -DZ BR OVC004 15/14 A3010 RMK AO2 DZB12 P0000 T01500139

More Conditions Fewer Conditions

Pressure 30.10 in
Visibility 3.0 miles
Clouds Overcast 400 ft
Dew Point 57 °F
Humidity 96%
Rainfall 0.54 in
Snow Depth Not available.
UV 2.0 out of 12
Pollen .40 out of 12
Air Quality Not available.
Flu Activity Not available.
SPECI KBHM 281713Z 33003KT 3SM -DZ BR OVC004 15/14 A3010 RMK AO2 DZB12 P0000 T01500139

More Conditions Fewer Conditions

10-Day Weather Forecast

Almanac

Astronomy

Dec. 28, 2014 Rise Set
Actual Time
Civil Twilight
Nautical Twilight
Astronomical Twilight
Moon
Length of Visible Light
Length of Day
Tomorrow will be .
, % of the Moon is Illuminated

Today's Extremes

State Highs State Lows

Community

WunderPhotos

Upload Photos

1,781,360 photos uploaded!

WunderBlogs® & News

Nearby

Air Quality

  Air Quality AQ Index Pollutant
Not available.

Snow Depth

Station Depth Elevation

Earthquake Activity

City Distance Mag. Time & Date
Minimum magnitude displayed is 2.5.

Coastal Water Temperatures

Place Temperature

Nearby Weather Stations